Terminal Aerodrome Forecast
Issued by NWS Sioux Falls, SD

Home | Current Version | Previous Version | Graphics & Text | Print | Product List | Glossary On
Versions: 1 2 3 4 5 6 7 8 9 10 11 12 13
952
FTUS43 KFSD 221124
TAFFSD
TAF
KFSD 221124Z 2212/2312 16013KT P6SM SCT200 WS011/17040KT
     FM221300 16014KT P6SM SCT070 BKN200
     FM221400 16015G23KT P6SM BKN045
     FM230900 17014KT P6SM SHRA VCTS OVC030CB=

USA.gov is the U.S. government's official web portal to all federal, state and local government web resources and services.